Time;durP1;ratioP1;P1;durP2;ratioP2;P2;SDS_P1;SDS_P2;PMS_P1;PMS_P2;Temp;Humidity;BMP_temperature;BMP_pressure;BME280_temperature;BME280_humidity;BME280_pressure;Samples;Min_cycle;Max_cycle;Signal;HPM_P1;HPM_P2
2021/11/17 02:27:29;;;;;;;5.60;2.77;;;;;;;;;;5007170;28;20040;-62
2021/11/17 02:30:07;;;;;;;7.93;4.50;;;;;;;;;;5007253;28;20041;-61
2021/11/17 02:32:43;;;;;;;7.17;3.50;;;;;;;;;;5020235;28;20028;-61
2021/11/17 02:35:44;;;;;;;10.83;3.90;;;;;;;;;;5032348;28;20025;-61
2021/11/17 02:38:17;;;;;;;6.07;3.57;;;;;;;;;;5030929;28;20032;-61
2021/11/17 02:40:44;;;;;;;6.30;3.13;;;;;;;;;;5031256;28;20407;-61
2021/11/17 02:43:24;;;;;;;10.83;3.83;;;;;;;;;;5029117;28;20107;-61
2021/11/17 02:46:07;;;;;;;8.77;4.00;;;;;;;;;;5026459;28;20037;-61
2021/11/17 02:48:53;;;;;;;5.67;3.43;;;;;;;;;;5025359;28;20455;-61
2021/11/17 02:51:19;;;;;;;;;;;;;;;;;;5026404;28;20033;-61
2021/11/17 02:53:46;;;;;;;7.03;3.90;;;;;;;;;;5030295;28;20245;-61
2021/11/17 02:56:40;;;;;;;9.70;3.90;;;;;;;;;;5031931;28;20056;-61
2021/11/17 02:59:40;;;;;;;7.53;4.13;;;;;;;;;;5032047;28;20135;-61
2021/11/17 03:02:15;;;;;;;10.17;4.53;;;;;;;;;;5031610;28;20068;-61
2021/11/17 03:04:45;;;;;;;9.20;4.60;;;;;;;;;;5030938;28;20037;-61
2021/11/17 03:07:12;;;;;;;10.57;4.10;;;;;;;;;;5026198;28;20032;-62
2021/11/17 03:09:41;;;;;;;11.13;5.60;;;;;;;;;;5026484;28;20140;-61
2021/11/17 03:12:23;;;;;;;7.93;4.33;;;;;;;;;;5026212;28;20529;-61
2021/11/17 03:14:59;;;;;;;9.53;3.77;;;;;;;;;;5027175;28;20026;-61
2021/11/17 03:17:35;;;;;;;11.27;3.07;;;;;;;;;;5031534;28;20033;-61
2021/11/17 03:20:08;;;;;;;12.67;4.47;;;;;;;;;;5031852;28;20089;-61
2021/11/17 03:22:41;;;;;;;13.20;3.80;;;;;;;;;;5031574;28;20104;-61
2021/11/17 03:25:14;;;;;;;8.07;3.37;;;;;;;;;;5031571;28;20029;-61
2021/11/17 03:27:47;;;;;;;12.77;4.20;;;;;;;;;;5029395;28;20496;-61
2021/11/17 03:30:32;;;;;;;7.43;3.93;;;;;;;;;;5026312;28;20069;-61
2021/11/17 03:33:19;;;;;;;11.70;3.75;;;;;;;;;;5026059;28;20030;-61
2021/11/17 03:35:49;;;;;;;6.67;3.33;;;;;;;;;;5025902;28;20038;-61
2021/11/17 03:38:19;;;;;;;9.23;3.67;;;;;;;;;;5029648;28;20087;-61
2021/11/17 03:40:53;;;;;;;8.03;3.77;;;;;;;;;;5031555;28;20028;-61
2021/11/17 03:43:26;;;;;;;11.13;3.37;;;;;;;;;;5031129;28;20028;-61
2021/11/17 03:46:09;;;;;;;9.77;3.37;;;;;;;;;;5031494;28;20034;-61
2021/11/17 03:48:38;;;;;;;9.40;3.50;;;;;;;;;;5031357;28;20471;-61
2021/11/17 03:51:12;;;;;;;5.67;2.80;;;;;;;;;;5027501;28;20037;-61
2021/11/17 03:53:51;;;;;;;12.83;3.80;;;;;;;;;;5030032;28;20033;-61
2021/11/17 03:56:28;;;;;;;6.87;2.70;;;;;;;;;;5029560;28;20057;-61
2021/11/17 03:59:13;;;;;;;8.97;3.63;;;;;;;;;;5029656;28;20782;-61
2021/11/17 04:01:58;;;;;;;6.57;3.58;;;;;;;;;;5034813;28;20021;-61
2021/11/17 04:04:25;;;;;;;8.85;3.22;;;;;;;;;;5035128;28;20029;-61
2021/11/17 04:06:52;;;;;;;7.93;4.00;;;;;;;;;;5034682;28;20084;-61
2021/11/17 04:09:41;;;;;;;8.00;3.57;;;;;;;;;;5034751;28;20109;-61
2021/11/17 04:12:20;;;;;;;5.97;3.40;;;;;;;;;;5032813;28;20502;-61
2021/11/17 04:14:59;;;;;;;5.70;3.03;;;;;;;;;;5028809;28;20018;-61
2021/11/17 04:17:42;;;;;;;9.30;3.10;;;;;;;;;;5029601;28;20052;-61
2021/11/17 04:20:28;;;;;;;8.17;3.03;;;;;;;;;;5029551;28;20021;-61
2021/11/17 04:23:05;;;;;;;6.77;3.10;;;;;;;;;;5032670;28;20109;-61
2021/11/17 04:25:44;;;;;;;17.20;3.77;;;;;;;;;;5034321;28;20022;-61
2021/11/17 04:28:17;;;;;;;6.27;3.20;;;;;;;;;;5034497;28;20021;-61
2021/11/17 04:31:02;;;;;;;5.20;2.70;;;;;;;;;;5034561;28;20435;-61
2021/11/17 04:33:38;;;;;;;5.68;2.85;;;;;;;;;;5034384;28;20029;-61
2021/11/17 04:36:11;;;;;;;7.07;2.87;;;;;;;;;;5028888;28;20037;-61
2021/11/17 04:38:56;;;;;;;10.87;3.13;;;;;;;;;;5029396;28;20029;-61
2021/11/17 04:41:45;;;;;;;5.28;2.88;;;;;;;;;;5029166;28;20057;-61
2021/11/17 04:44:20;;;;;;;6.37;3.13;;;;;;;;;;5029720;28;20018;-61
2021/11/17 04:47:00;;;;;;;3.93;2.13;;;;;;;;;;5033800;28;20026;-60
2021/11/17 04:49:42;;;;;;;8.33;3.20;;;;;;;;;;5034032;28;20029;-61
2021/11/17 04:52:18;;;;;;;5.77;2.80;;;;;;;;;;5033772;28;20627;-63
2021/11/17 04:54:51;;;;;;;7.17;3.13;;;;;;;;;;5034106;28;20038;-62
2021/11/17 04:57:35;;;;;;;8.73;3.27;;;;;;;;;;5030643;28;20104;-62
2021/11/17 05:00:02;;;;;;;6.65;3.45;;;;;;;;;;5028828;28;20395;-62
2021/11/17 05:03:01;;;;;;;6.03;3.70;;;;;;;;;;5027017;28;20068;-63
2021/11/17 05:05:28;;;;;;;4.20;2.47;;;;;;;;;;5021615;28;20440;-63
2021/11/17 05:08:27;;;;;;;6.07;3.13;;;;;;;;;;5039879;28;20022;-62
2021/11/17 05:10:53;;;;;;;5.60;3.10;;;;;;;;;;5031786;28;20065;-63
2021/11/17 05:13:27;;;;;;;6.43;2.63;;;;;;;;;;5049910;28;20025;-63
2021/11/17 05:16:06;;;;;;;5.87;2.93;;;;;;;;;;5053146;28;20480;-62
2021/11/17 05:18:55;;;;;;;6.80;3.20;;;;;;;;;;5052169;28;20510;-63
2021/11/17 05:21:40;;;;;;;6.83;3.10;;;;;;;;;;5043735;28;20120;-62
2021/11/17 05:24:32;;;;;;;8.80;3.58;;;;;;;;;;5027908;28;20455;-63
2021/11/17 05:27:24;;;;;;;5.83;2.90;;;;;;;;;;5028107;28;20049;-63
2021/11/17 05:29:57;;;;;;;7.80;2.90;;;;;;;;;;5030770;28;20040;-63
2021/11/17 05:32:39;;;;;;;5.33;3.03;;;;;;;;;;5033097;28;20025;-63
2021/11/17 05:35:32;;;;;;;5.17;3.37;;;;;;;;;;5032684;28;20032;-63
2021/11/17 05:38:21;;;;;;;6.10;3.37;;;;;;;;;;5012221;28;20046;-63
2021/11/17 05:40:55;;;;;;;5.07;2.77;;;;;;;;;;5012019;28;20026;-63
2021/11/17 05:43:29;;;;;;;5.63;3.10;;;;;;;;;;5008040;28;20034;-63
2021/11/17 05:46:16;;;;;;;6.00;3.22;;;;;;;;;;5008014;28;20033;-63
2021/11/17 05:48:49;;;;;;;5.50;3.20;;;;;;;;;;5016530;28;20067;-62
2021/11/17 05:51:22;;;;;;;6.10;2.90;;;;;;;;;;5029563;28;20117;-62
2021/11/17 05:53:49;;;;;;;4.57;2.70;;;;;;;;;;5032432;28;20017;-63
2021/11/17 05:56:26;;;;;;;5.37;2.87;;;;;;;;;;5032771;28;20029;-62
2021/11/17 05:59:08;;;;;;;9.47;3.17;;;;;;;;;;5032666;28;20017;-62
2021/11/17 06:01:35;;;;;;;5.27;2.60;;;;;;;;;;5032806;28;20435;-62
2021/11/17 06:04:03;;;;;;;5.30;2.90;;;;;;;;;;5029801;28;20354;-64
2021/11/17 06:06:47;;;;;;;6.63;3.00;;;;;;;;;;5027609;28;20032;-63
2021/11/17 06:09:14;;;;;;;8.03;3.37;;;;;;;;;;5027284;28;20503;-62
2021/11/17 06:11:43;;;;;;;5.70;2.93;;;;;;;;;;5027659;28;20049;-62
2021/11/17 06:14:17;;;;;;;8.07;3.90;;;;;;;;;;5029194;28;20030;-63
2021/11/17 06:16:47;;;;;;;6.70;3.40;;;;;;;;;;5032157;28;20022;-62
2021/11/17 06:19:14;;;;;;;7.30;3.10;;;;;;;;;;5032547;28;20088;-62
2021/11/17 06:21:41;;;;;;;6.03;3.53;;;;;;;;;;5032514;28;20022;-62
2021/11/17 06:24:09;;;;;;;5.90;3.07;;;;;;;;;;5032111;28;20025;-62
2021/11/17 06:26:37;;;;;;;7.67;3.40;;;;;;;;;;5028952;28;20117;-62
2021/11/17 06:29:24;;;;;;;6.87;3.57;;;;;;;;;;5026805;28;20025;-63
2021/11/17 06:31:51;;;;;;;10.93;3.37;;;;;;;;;;5026669;28;20068;-62
2021/11/17 06:34:24;;;;;;;5.80;3.43;;;;;;;;;;5026893;28;20037;-62
2021/11/17 06:36:51;;;;;;;11.30;3.33;;;;;;;;;;5030720;28;20029;-62
2021/11/17 06:39:18;;;;;;;4.90;2.70;;;;;;;;;;5032185;28;20044;-62
2021/11/17 06:41:45;;;;;;;6.43;2.73;;;;;;;;;;5031818;28;20499;-63
2021/11/17 06:44:12;;;;;;;4.77;2.57;;;;;;;;;;5032330;28;20029;-62
2021/11/17 06:46:38;;;;;;;5.03;2.57;;;;;;;;;;5032065;28;20044;-62
2021/11/17 06:49:05;;;;;;;5.53;2.97;;;;;;;;;;5027565;28;20060;-62
2021/11/17 06:51:32;;;;;;;7.30;3.53;;;;;;;;;;5026934;28;20025;-63
2021/11/17 06:53:59;;;;;;;5.43;2.70;;;;;;;;;;5026829;28;20700;-62
2021/11/17 06:56:27;;;;;;;4.53;2.97;;;;;;;;;;5026890;28;20033;-62
2021/11/17 06:58:54;;;;;;;8.30;3.67;;;;;;;;;;5029848;28;20087;-62
2021/11/17 07:01:21;;;;;;;5.90;3.47;;;;;;;;;;5031746;28;20282;-62
2021/11/17 07:03:48;;;;;;;6.73;3.30;;;;;;;;;;5032023;28;20026;-62
2021/11/17 07:06:15;;;;;;;6.13;2.77;;;;;;;;;;5031974;28;20104;-62
2021/11/17 07:08:55;;;;;;;6.87;2.83;;;;;;;;;;5031869;28;20282;-62
2021/11/17 07:11:22;;;;;;;7.33;2.80;;;;;;;;;;5027720;28;20034;-63
2021/11/17 07:13:48;;;;;;;6.40;2.73;;;;;;;;;;5026353;28;20025;-62
2021/11/17 07:16:15;;;;;;;5.63;2.77;;;;;;;;;;5026619;28;20251;-62
2021/11/17 07:18:42;;;;;;;6.43;2.63;;;;;;;;;;5026636;28;20349;-62
2021/11/17 07:21:09;;;;;;;6.50;3.07;;;;;;;;;;5029793;28;20262;-62
2021/11/17 07:23:36;;;;;;;7.77;3.40;;;;;;;;;;5031619;28;20263;-62
2021/11/17 07:26:03;;;;;;;5.23;3.40;;;;;;;;;;5033024;28;20625;-62
2021/11/17 07:28:33;;;;;;;3.93;2.20;;;;;;;;;;5035306;28;20250;-62
2021/11/17 07:30:59;;;;;;;5.90;2.83;;;;;;;;;;5035491;28;20291;-62
2021/11/17 07:33:26;;;;;;;4.63;2.33;;;;;;;;;;5032160;28;20342;-62
2021/11/17 07:35:53;;;;;;;4.90;2.50;;;;;;;;;;5030348;28;20246;-62
2021/11/17 07:38:22;;;;;;;6.43;2.90;;;;;;;;;;5030013;28;20277;-63
2021/11/17 07:40:49;;;;;;;4.13;2.30;;;;;;;;;;5030168;28;20259;-62
2021/11/17 07:43:23;;;;;;;4.67;2.53;;;;;;;;;;5032698;28;20301;-63
2021/11/17 07:45:50;;;;;;;7.70;3.53;;;;;;;;;;5035422;28;20273;-62
2021/11/17 07:48:17;;;;;;;6.33;3.30;;;;;;;;;;5035001;28;20274;-62
2021/11/17 07:50:53;;;;;;;6.23;3.53;;;;;;;;;;5035348;28;20313;-62
2021/11/17 07:53:19;;;;;;;;;;;;;;;;;;5035583;28;20776;-63
2021/11/17 07:55:46;;;;;;;4.33;2.27;;;;;;;;;;5031303;28;19905;-63
2021/11/17 07:58:14;;;;;;;5.90;2.80;;;;;;;;;;5029669;28;20255;-62
2021/11/17 08:00:45;;;;;;;8.63;2.73;;;;;;;;;;5029752;28;20274;-62
2021/11/17 08:03:12;;;;;;;5.50;2.43;;;;;;;;;;5029819;28;20817;-63
2021/11/17 08:05:40;;;;;;;6.77;3.37;;;;;;;;;;5032728;28;20263;-62
2021/11/17 08:08:06;;;;;;;4.47;2.67;;;;;;;;;;5034926;28;20247;-62
2021/11/17 08:13:33;;;;;;;6.33;3.17;;;;;;;;;;5034192;28;20266;-62
2021/11/17 08:16:21;;;;;;;6.33;3.03;;;;;;;;;;5034470;28;20632;-62
2021/11/17 08:18:48;;;;;;;6.97;3.27;;;;;;;;;;5029118;28;20281;-62
2021/11/17 08:21:15;;;;;;;7.07;3.17;;;;;;;;;;5029432;28;20263;-62
2021/11/17 08:23:42;;;;;;;4.43;2.80;;;;;;;;;;5029438;28;20285;-62
2021/11/17 08:26:10;;;;;;;7.93;3.20;;;;;;;;;;5029320;28;20263;-62
2021/11/17 08:28:41;;;;;;;6.73;3.23;;;;;;;;;;5034132;28;20273;-62
2021/11/17 08:31:08;;;;;;;4.90;2.93;;;;;;;;;;5034235;28;20294;-64
2021/11/17 08:33:35;;;;;;;8.57;2.70;;;;;;;;;;5034322;28;20319;-62
2021/11/17 08:36:02;;;;;;;6.23;3.47;;;;;;;;;;5034317;28;20328;-63
2021/11/17 08:38:30;;;;;;;10.63;3.60;;;;;;;;;;5034126;28;20263;-62
2021/11/17 08:40:59;;;;;;;6.73;4.27;;;;;;;;;;5029044;28;20273;-62
2021/11/17 08:43:27;;;;;;;6.33;3.20;;;;;;;;;;5029214;28;20258;-62
2021/11/17 08:45:54;;;;;;;5.60;2.27;;;;;;;;;;5028827;28;20275;-65
2021/11/17 08:48:30;;;;;;;6.20;2.57;;;;;;;;;;5028501;28;20327;-62
2021/11/17 08:50:58;;;;;;;6.90;3.77;;;;;;;;;;5033752;28;20297;-63
2021/11/17 08:53:26;;;;;;;5.83;2.70;;;;;;;;;;5034188;28;20279;-62
2021/11/17 08:55:53;;;;;;;4.83;2.70;;;;;;;;;;5033023;28;20278;-62
2021/11/17 08:58:21;;;;;;;8.93;3.20;;;;;;;;;;5034380;28;20598;-62
2021/11/17 09:00:48;;;;;;;5.23;2.67;;;;;;;;;;5033548;28;20640;-62
2021/11/17 09:03:16;;;;;;;5.50;2.87;;;;;;;;;;5028762;28;20396;-62
2021/11/17 09:05:45;;;;;;;6.23;3.20;;;;;;;;;;5028579;28;20262;-62
2021/11/17 09:08:13;;;;;;;6.97;3.13;;;;;;;;;;5028032;28;20361;-62
2021/11/17 09:10:41;;;;;;;5.20;2.53;;;;;;;;;;5028141;28;20385;-62
2021/11/17 09:13:08;;;;;;;7.53;3.50;;;;;;;;;;5033447;28;20343;-62
2021/11/17 09:15:37;;;;;;;6.47;3.00;;;;;;;;;;5033278;28;20258;-62
2021/11/17 09:18:05;;;;;;;5.20;2.93;;;;;;;;;;5033558;28;20369;-61
2021/11/17 09:20:32;;;;;;;8.83;3.73;;;;;;;;;;5033571;28;20251;-62
2021/11/17 09:22:59;;;;;;;5.80;2.97;;;;;;;;;;5033450;28;20721;-62
2021/11/17 09:25:26;;;;;;;5.50;3.00;;;;;;;;;;5028142;28;20262;-62
2021/11/17 09:27:55;;;;;;;7.30;3.00;;;;;;;;;;5028307;28;20263;-62
2021/11/17 09:30:31;;;;;;;5.13;2.70;;;;;;;;;;5027871;28;20290;-63
2021/11/17 09:33:01;;;;;;;3.70;2.37;;;;;;;;;;5028262;28;20270;-62
2021/11/17 09:35:31;;;;;;;4.00;2.03;;;;;;;;;;5032823;28;20261;-62
2021/11/17 09:37:59;;;;;;;4.63;2.53;;;;;;;;;;5033239;28;20258;-61
2021/11/17 09:40:38;;;;;;;4.97;2.50;;;;;;;;;;5032876;28;20309;-62
2021/11/17 09:43:07;;;;;;;5.73;2.90;;;;;;;;;;5033315;28;20255;-62
2021/11/17 09:45:34;;;;;;;4.03;2.00;;;;;;;;;;5032735;28;20255;-62
2021/11/17 09:48:02;;;;;;;4.20;2.27;;;;;;;;;;5027322;28;20310;-62
2021/11/17 09:50:45;;;;;;;4.83;2.40;;;;;;;;;;5027468;28;20286;-62
2021/11/17 09:53:20;;;;;;;4.80;2.90;;;;;;;;;;5027548;28;20283;-62
2021/11/17 09:55:47;;;;;;;;;;;;;;;;;;5028495;28;20262;-62
2021/11/17 09:58:19;;;;;;;3.90;2.30;;;;;;;;;;5032689;28;19905;-62
2021/11/17 10:01:06;;;;;;;5.43;2.03;;;;;;;;;;5032779;28;20259;-61
2021/11/17 10:03:36;;;;;;;4.20;2.27;;;;;;;;;;5032962;28;20258;-62
2021/11/17 10:13:59;;;;;;;4.35;2.15;;;;;;;;;;5026819;28;20334;-62
2021/11/17 10:19:30;;;;;;;5.07;2.97;;;;;;;;;;5029919;28;20263;-63
2021/11/17 10:21:59;;;;;;;5.07;3.10;;;;;;;;;;5032718;28;20247;-61
2021/11/17 10:24:40;;;;;;;7.53;4.30;;;;;;;;;;5032617;28;20308;-62
2021/11/17 10:27:06;;;;;;;8.30;3.50;;;;;;;;;;5032713;28;20251;-62
2021/11/17 10:29:33;;;;;;;6.77;3.30;;;;;;;;;;5032032;28;20618;-62
2021/11/17 10:32:04;;;;;;;5.23;2.67;;;;;;;;;;5027300;28;20261;-61
2021/11/17 10:34:35;;;;;;;4.60;2.67;;;;;;;;;;5027074;28;20330;-62
2021/11/17 10:37:05;;;;;;;3.60;1.97;;;;;;;;;;5026886;28;20254;-61
2021/11/17 10:39:45;;;;;;;4.93;2.77;;;;;;;;;;5026777;28;20322;-62
2021/11/17 10:42:14;;;;;;;6.73;3.10;;;;;;;;;;5032259;28;20290;-62
2021/11/17 10:45:00;;;;;;;7.40;3.60;;;;;;;;;;5032255;28;20259;-62
2021/11/17 10:47:30;;;;;;;6.20;3.27;;;;;;;;;;5032392;28;20278;-62
2021/11/17 10:49:58;;;;;;;8.43;3.77;;;;;;;;;;5032143;28;20294;-61
2021/11/17 10:52:30;;;;;;;6.33;3.20;;;;;;;;;;5030672;28;20262;-62
2021/11/17 10:54:58;;;;;;;6.47;3.23;;;;;;;;;;5026749;28;20324;-62
2021/11/17 10:57:29;;;;;;;6.10;2.93;;;;;;;;;;5026829;28;20273;-62
2021/11/17 10:59:57;;;;;;;8.53;3.50;;;;;;;;;;5026288;28;20278;-62
2021/11/17 11:02:25;;;;;;;7.03;3.40;;;;;;;;;;5030761;28;20772;-62
2021/11/17 11:04:58;;;;;;;5.63;2.80;;;;;;;;;;5036245;28;20704;-62
2021/11/17 11:07:27;;;;;;;6.47;2.83;;;;;;;;;;5036171;28;20255;-62
2021/11/17 11:09:57;;;;;;;7.77;3.07;;;;;;;;;;5036240;28;20345;-62
2021/11/17 11:12:28;;;;;;;5.93;2.90;;;;;;;;;;5035870;28;20350;-62
2021/11/17 11:15:01;;;;;;;4.37;2.60;;;;;;;;;;5033901;28;20809;-62
2021/11/17 11:17:28;;;;;;;5.43;2.53;;;;;;;;;;5030526;28;20320;-61
2021/11/17 11:20:13;;;;;;;5.40;2.37;;;;;;;;;;5030794;28;20266;-62
2021/11/17 11:23:00;;;;;;;5.65;3.00;;;;;;;;;;5030148;28;20259;-63
2021/11/17 11:25:42;;;;;;;4.30;2.40;;;;;;;;;;5031610;28;20124;-62
2021/11/17 11:28:38;;;;;;;6.47;2.60;;;;;;;;;;5035776;28;20262;-61
2021/11/17 11:31:06;;;;;;;;;;;;;;;;;;5035377;28;20293;-62
2021/11/17 11:33:36;;;;;;;5.67;2.67;;;;;;;;;;5035851;28;19912;-61
2021/11/17 11:36:24;;;;;;;4.87;2.67;;;;;;;;;;5035254;28;20262;-62
2021/11/17 11:38:59;;;;;;;4.50;2.23;;;;;;;;;;5029199;28;20349;-61
2021/11/17 11:41:33;;;;;;;6.00;2.57;;;;;;;;;;5030096;28;20254;-62
2021/11/17 11:47:08;;;;;;;4.97;2.97;;;;;;;;;;5033735;28;20690;-62
2021/11/17 11:49:52;;;;;;;7.70;3.47;;;;;;;;;;5035309;28;20298;-61
2021/11/17 11:52:25;;;;;;;6.00;3.30;;;;;;;;;;5035397;28;20258;-61
2021/11/17 11:54:54;;;;;;;5.43;2.93;;;;;;;;;;5035359;28;20267;-61
2021/11/17 11:57:36;;;;;;;6.07;3.07;;;;;;;;;;5035115;28;20255;-61
2021/11/17 12:00:30;;;;;;;6.20;2.90;;;;;;;;;;5030818;28;20310;-62
2021/11/17 12:03:01;;;;;;;5.43;2.37;;;;;;;;;;5029928;28;20255;-62
2021/11/17 12:05:35;;;;;;;9.80;3.33;;;;;;;;;;5029880;28;20262;-62
2021/11/17 12:08:04;;;;;;;6.23;3.70;;;;;;;;;;5029403;28;20255;-62
2021/11/17 12:10:33;;;;;;;6.57;3.43;;;;;;;;;;5034551;28;20294;-61
2021/11/17 12:13:18;;;;;;;8.87;3.47;;;;;;;;;;5034237;28;20385;-61
2021/11/17 12:16:03;;;;;;;6.70;3.53;;;;;;;;;;5035018;28;20251;-62
2021/11/17 12:18:31;;;;;;;6.05;2.85;;;;;;;;;;5035226;28;20029;-62
2021/11/17 12:21:00;;;;;;;4.77;2.70;;;;;;;;;;5033087;28;20041;-62
2021/11/17 12:23:32;;;;;;;7.27;3.27;;;;;;;;;;5009521;28;20750;-61
2021/11/17 12:26:07;;;;;;;7.50;2.90;;;;;;;;;;5009542;28;20785;-61
2021/11/17 12:28:41;;;;;;;4.93;2.80;;;;;;;;;;5009541;28;20278;-61
2021/11/17 12:31:15;;;;;;;7.20;2.80;;;;;;;;;;5010456;28;20847;-61
2021/11/17 12:33:51;;;;;;;6.63;2.20;;;;;;;;;;5023501;28;20282;-62
2021/11/17 12:36:23;;;;;;;5.53;2.47;;;;;;;;;;5033907;28;20273;-61
2021/11/17 12:38:51;;;;;;;6.17;3.10;;;;;;;;;;5034183;28;20293;-61
2021/11/17 12:41:38;;;;;;;5.37;2.90;;;;;;;;;;5034144;28;20251;-61
2021/11/17 12:44:10;;;;;;;14.93;3.40;;;;;;;;;;5030384;28;20358;-61
2021/11/17 12:46:39;;;;;;;7.87;2.23;;;;;;;;;;5028556;28;20273;-62
2021/11/17 12:49:35;;;;;;;10.10;3.20;;;;;;;;;;5028209;28;20281;-61
2021/11/17 12:52:21;;;;;;;9.10;3.07;;;;;;;;;;5023975;28;20279;-61
2021/11/17 12:54:47;;;;;;;9.65;2.90;;;;;;;;;;5033806;28;20726;-61
2021/11/17 12:57:16;;;;;;;11.63;3.80;;;;;;;;;;5034022;28;20029;-61
2021/11/17 12:59:46;;;;;;;8.93;3.07;;;;;;;;;;5032726;28;20267;-61
2021/11/17 13:02:22;;;;;;;4.33;2.50;;;;;;;;;;5033927;28;20716;-61
2021/11/17 13:04:50;;;;;;;6.73;3.80;;;;;;;;;;5033712;28;20316;-61
2021/11/17 13:07:36;;;;;;;6.50;3.03;;;;;;;;;;5027828;28;20267;-61
2021/11/17 13:10:05;;;;;;;8.33;3.43;;;;;;;;;;5026964;28;20788;-62
2021/11/17 13:12:36;;;;;;;6.50;2.60;;;;;;;;;;5007533;28;20264;-61
2021/11/17 13:15:22;;;;;;;6.87;3.30;;;;;;;;;;5008818;28;20630;-62
2021/11/17 13:17:49;;;;;;;10.17;4.67;;;;;;;;;;5013674;28;20757;-61
2021/11/17 13:20:19;;;;;;;12.00;3.93;;;;;;;;;;5025903;28;20266;-61
2021/11/17 13:22:47;;;;;;;10.33;5.10;;;;;;;;;;5033037;28;20891;-61
2021/11/17 13:25:19;;;;;;;7.53;4.10;;;;;;;;;;5033166;28;20726;-61
2021/11/17 13:27:53;;;;;;;20.77;7.93;;;;;;;;;;5031680;28;20737;-62
2021/11/17 13:30:29;;;;;;;18.83;7.20;;;;;;;;;;5027696;28;20287;-61
2021/11/17 13:32:56;;;;;;;14.47;5.80;;;;;;;;;;5027583;28;20263;-61
2021/11/17 13:35:26;;;;;;;14.17;6.10;;;;;;;;;;5027982;28;20776;-61
2021/11/17 13:38:11;;;;;;;10.87;4.87;;;;;;;;;;5029497;28;20281;-61
2021/11/17 13:40:38;;;;;;;9.30;4.27;;;;;;;;;;5033163;28;20263;-62
2021/11/17 13:43:05;;;;;;;10.23;4.50;;;;;;;;;;5032942;28;20258;-62
2021/11/17 13:45:32;;;;;;;6.93;3.73;;;;;;;;;;5033299;28;20250;-62
2021/11/17 13:48:01;;;;;;;5.17;2.93;;;;;;;;;;5032894;28;20271;-62
2021/11/17 13:50:30;;;;;;;7.37;4.00;;;;;;;;;;5029900;28;20485;-62
2021/11/17 13:52:57;;;;;;;12.73;4.47;;;;;;;;;;5027675;28;20622;-62
2021/11/17 13:55:26;;;;;;;11.10;5.40;;;;;;;;;;5027494;28;20265;-62
2021/11/17 13:57:54;;;;;;;6.53;4.00;;;;;;;;;;5027585;28;20749;-62
2021/11/17 14:00:32;;;;;;;7.77;4.50;;;;;;;;;;5029875;28;20255;-62
2021/11/17 14:02:59;;;;;;;11.23;4.87;;;;;;;;;;5032985;28;20021;-62
2021/11/17 14:05:26;;;;;;;9.80;4.87;;;;;;;;;;5032374;28;20373;-62
2021/11/17 14:08:00;;;;;;;12.60;6.07;;;;;;;;;;5032166;28;20038;-63
2021/11/17 14:10:43;;;;;;;9.40;4.63;;;;;;;;;;5032429;28;20048;-62
2021/11/17 14:13:12;;;;;;;7.97;4.82;;;;;;;;;;5027668;28;20045;-62
2021/11/17 14:15:38;;;;;;;7.83;4.53;;;;;;;;;;5026731;28;20569;-62
2021/11/17 14:18:06;;;;;;;8.83;4.03;;;;;;;;;;5026819;28;20021;-63
2021/11/17 14:20:33;;;;;;;9.17;5.53;;;;;;;;;;5026564;28;20029;-61
2021/11/17 14:23:00;;;;;;;12.13;6.20;;;;;;;;;;5031292;28;20067;-62
2021/11/17 14:25:28;;;;;;;13.60;5.87;;;;;;;;;;5032722;28;20021;-62
2021/11/17 14:28:02;;;;;;;10.73;6.17;;;;;;;;;;5031931;28;20256;-62
2021/11/17 14:30:40;;;;;;;8.83;5.37;;;;;;;;;;5032027;28;20030;-63
2021/11/17 14:33:08;;;;;;;8.03;5.27;;;;;;;;;;5032456;28;20053;-62
2021/11/17 14:35:36;;;;;;;10.23;5.00;;;;;;;;;;5026453;28;20420;-62
2021/11/17 14:38:02;;;;;;;11.27;6.33;;;;;;;;;;5027028;28;20033;-62
2021/11/17 14:40:29;;;;;;;8.90;4.83;;;;;;;;;;5026717;28;20064;-62
2021/11/17 14:42:56;;;;;;;9.97;5.23;;;;;;;;;;5026167;28;20387;-63
2021/11/17 14:45:25;;;;;;;9.13;5.10;;;;;;;;;;5031050;28;20538;-62
2021/11/17 14:47:52;;;;;;;10.10;5.93;;;;;;;;;;5031986;28;20033;-62
2021/11/17 14:50:21;;;;;;;10.20;5.77;;;;;;;;;;5032276;28;20480;-62
2021/11/17 14:52:58;;;;;;;9.80;5.37;;;;;;;;;;5031023;28;20375;-62
2021/11/17 14:55:26;;;;;;;8.13;5.33;;;;;;;;;;5031418;28;20040;-62
2021/11/17 14:57:57;;;;;;;7.53;4.40;;;;;;;;;;5026422;28;20112;-62
2021/11/17 15:00:26;;;;;;;10.17;5.63;;;;;;;;;;5026778;28;20025;-62
2021/11/17 15:02:54;;;;;;;8.27;5.40;;;;;;;;;;5025532;28;20034;-63
2021/11/17 15:05:22;;;;;;;9.70;6.10;;;;;;;;;;5026577;28;20033;-63
2021/11/17 15:07:59;;;;;;;;;;;;;;;;;;;;;
2021/11/17 15:10:27;;;;;;;8.50;5.80;;;;;;;;;;5030052;28;20049;-62
2021/11/17 15:12:56;;;;;;;13.40;6.77;;;;;;;;;;5032064;28;20024;-62
2021/11/17 15:15:24;;;;;;;12.60;7.40;;;;;;;;;;5031984;28;20104;-62
2021/11/17 15:17:51;;;;;;;9.37;6.33;;;;;;;;;;5030802;28;20021;-63
2021/11/17 15:20:19;;;;;;;11.57;6.23;;;;;;;;;;5025829;28;20025;-63
2021/11/17 15:22:46;;;;;;;9.70;6.97;;;;;;;;;;5026448;28;20021;-62
2021/11/17 15:25:18;;;;;;;12.10;6.77;;;;;;;;;;5026367;28;20518;-62
2021/11/17 15:27:48;;;;;;;9.67;6.20;;;;;;;;;;5026917;28;20036;-62
2021/11/17 15:30:21;;;;;;;12.33;7.77;;;;;;;;;;5031438;28;20380;-63
2021/11/17 15:32:49;;;;;;;13.13;8.63;;;;;;;;;;5031535;28;20087;-63
2021/11/17 15:35:18;;;;;;;15.77;10.77;;;;;;;;;;5031961;28;20029;-63
2021/11/17 15:37:48;;;;;;;20.73;12.07;;;;;;;;;;5031639;28;20026;-63
2021/11/17 15:40:16;;;;;;;16.27;10.23;;;;;;;;;;5029781;28;20079;-63
2021/11/17 15:42:44;;;;;;;16.03;10.23;;;;;;;;;;5025841;28;20037;-63
2021/11/17 15:45:10;;;;;;;15.40;9.77;;;;;;;;;;5025663;28;20045;-63
2021/11/17 15:47:40;;;;;;;13.87;9.13;;;;;;;;;;5028190;28;20029;-63
2021/11/17 15:50:08;;;;;;;17.87;9.43;;;;;;;;;;5030718;28;20092;-63
2021/11/17 15:52:35;;;;;;;13.73;8.77;;;;;;;;;;5035318;28;20032;-63
2021/11/17 15:55:02;;;;;;;14.90;8.83;;;;;;;;;;5034892;28;20365;-63
2021/11/17 15:57:29;;;;;;;15.73;8.03;;;;;;;;;;5035204;28;20022;-63
2021/11/17 15:59:56;;;;;;;17.40;8.00;;;;;;;;;;5034535;28;20033;-63
2021/11/17 16:02:22;;;;;;;25.17;8.10;;;;;;;;;;5033489;28;20028;-63
2021/11/17 16:04:49;;;;;;;14.43;8.63;;;;;;;;;;5029521;28;20025;-63
2021/11/17 16:07:20;;;;;;;14.27;7.13;;;;;;;;;;5029492;28;20018;-63
2021/11/17 16:09:51;;;;;;;12.50;6.77;;;;;;;;;;5029242;28;20388;-63
2021/11/17 16:12:18;;;;;;;12.43;7.23;;;;;;;;;;5030656;28;20029;-65
2021/11/17 16:14:45;;;;;;;9.33;6.20;;;;;;;;;;5035085;28;20025;-63
2021/11/17 16:17:22;;;;;;;;;;;;;;;;;;;;;
2021/11/17 16:19:53;;;;;;;10.70;5.27;;;;;;;;;;5031556;28;20142;-61
2021/11/17 16:22:34;;;;;;;11.53;5.97;;;;;;;;;;5031654;28;20030;-61
2021/11/17 16:28:28;;;;;;;9.73;5.20;;;;;;;;;;5045789;28;20033;-58
2021/11/17 16:30:56;;;;;;;8.63;5.50;;;;;;;;;;5022905;28;20106;-58
2021/11/17 16:33:23;;;;;;;9.27;5.80;;;;;;;;;;5028722;28;20020;-60
2021/11/17 16:35:51;;;;;;;9.53;5.87;;;;;;;;;;5033036;28;20029;-59
2021/11/17 16:38:19;;;;;;;13.30;6.57;;;;;;;;;;5034246;28;20017;-60
2021/11/17 16:40:46;;;;;;;8.93;5.73;;;;;;;;;;5033753;28;20034;-61
2021/11/17 16:43:14;;;;;;;9.03;5.83;;;;;;;;;;5034003;28;20034;-59
2021/11/17 16:45:42;;;;;;;11.23;5.90;;;;;;;;;;5033926;28;20020;-59
2021/11/17 16:48:10;;;;;;;6.43;4.60;;;;;;;;;;5029146;28;20092;-60
2021/11/17 16:50:55;;;;;;;10.70;5.77;;;;;;;;;;5028003;28;20580;-61
2021/11/17 16:53:22;;;;;;;12.07;5.30;;;;;;;;;;5028728;28;20043;-60
2021/11/17 16:55:50;;;;;;;11.50;5.03;;;;;;;;;;5028358;28;20072;-60
2021/11/17 16:58:19;;;;;;;10.40;5.03;;;;;;;;;;5032289;28;20452;-60
2021/11/17 17:00:47;;;;;;;7.97;4.97;;;;;;;;;;5033952;28;20068;-60
2021/11/17 17:03:16;;;;;;;8.17;4.17;;;;;;;;;;5033599;28;20503;-61
2021/11/17 17:05:44;;;;;;;14.13;6.30;;;;;;;;;;5033233;28;20545;-60
2021/11/17 17:08:11;;;;;;;10.87;6.50;;;;;;;;;;5033823;28;20104;-59
2021/11/17 17:10:38;;;;;;;17.57;6.87;;;;;;;;;;5028526;28;20034;-60
2021/11/17 17:13:06;;;;;;;9.63;6.07;;;;;;;;;;5028312;28;20104;-60
2021/11/17 17:15:37;;;;;;;17.90;7.27;;;;;;;;;;5028390;28;20028;-60
2021/11/17 17:18:13;;;;;;;10.97;6.37;;;;;;;;;;5027802;28;20109;-60
2021/11/17 17:20:41;;;;;;;11.63;6.03;;;;;;;;;;5033684;28;20033;-61
2021/11/17 17:23:10;;;;;;;12.90;7.20;;;;;;;;;;5033489;28;20353;-60
2021/11/17 17:25:40;;;;;;;10.33;5.77;;;;;;;;;;5033500;28;20422;-60
2021/11/17 17:28:10;;;;;;;16.13;6.17;;;;;;;;;;5033614;28;20025;-61
2021/11/17 17:30:38;;;;;;;10.03;5.73;;;;;;;;;;5032685;28;20030;-60
2021/11/17 17:33:07;;;;;;;9.13;5.83;;;;;;;;;;5027745;28;20512;-60
2021/11/17 17:35:42;;;;;;;8.30;5.43;;;;;;;;;;5027926;28;20022;-60
2021/11/17 17:38:09;;;;;;;13.07;4.80;;;;;;;;;;5028057;28;20017;-60
2021/11/17 17:40:36;;;;;;;14.33;7.43;;;;;;;;;;5028527;28;20033;-60
2021/11/17 17:43:06;;;;;;;9.23;4.97;;;;;;;;;;5033065;28;20036;-60
2021/11/17 17:45:33;;;;;;;20.33;6.57;;;;;;;;;;5033257;28;20029;-60
2021/11/17 17:48:01;;;;;;;7.97;4.80;;;;;;;;;;5033064;28;20043;-60
2021/11/17 17:50:32;;;;;;;9.83;4.70;;;;;;;;;;5032994;28;20045;-60
2021/11/17 17:53:00;;;;;;;7.63;3.97;;;;;;;;;;5031602;28;20029;-60
2021/11/17 17:55:27;;;;;;;13.80;4.57;;;;;;;;;;5027297;28;20087;-60
2021/11/17 17:57:54;;;;;;;8.97;4.47;;;;;;;;;;5027085;28;20037;-60
2021/11/17 18:00:22;;;;;;;6.33;3.97;;;;;;;;;;5027642;28;20025;-60